Time;durP1;ratioP1;P1;durP2;ratioP2;P2;SDS_P1;SDS_P2;PMS_P1;PMS_P2;Temp;Humidity;BMP_temperature;BMP_pressure;BME280_temperature;BME280_humidity;BME280_pressure;Samples;Min_cycle;Max_cycle;Signal;HPM_P1;HPM_P2
2021/03/04 00:02:23;;;;;;;81.53;44.83;;;;;;;7.65;75.80;102017.16;5043492;28;20044;-66
2021/03/04 00:04:49;;;;;;;77.78;44.70;;;;;;;7.60;75.98;102022.28;5040803;28;20076;-64
2021/03/04 00:07:15;;;;;;;80.45;42.38;;;;;;;7.61;76.30;102022.28;5043617;28;20060;-65
2021/03/04 00:09:41;;;;;;;76.40;44.28;;;;;;;7.66;75.80;102034.44;5046889;28;20132;-66
2021/03/04 00:12:08;;;;;;;73.70;41.25;;;;;;;7.69;75.41;102031.88;5043778;28;20046;-65
2021/03/04 00:14:34;;;;;;;77.25;43.08;;;;;;;7.64;75.28;102026.63;5040454;28;20076;-66
2021/03/04 00:17:00;;;;;;;72.32;40.40;;;;;;;7.66;75.23;102024.94;5044375;28;20053;-68
2021/03/04 00:19:26;;;;;;;74.55;43.25;;;;;;;7.62;75.16;102023.19;5046138;28;20049;-65
2021/03/04 00:21:52;;;;;;;75.47;41.30;;;;;;;7.57;75.42;102024.81;5046704;28;20573;-66
2021/03/04 00:24:18;;;;;;;66.88;38.83;;;;;;;7.55;75.57;102022.22;5040404;28;20049;-65
2021/03/04 00:26:45;;;;;;;75.97;41.10;;;;;;;7.49;75.73;102023.84;5045834;28;20071;-65
2021/03/04 00:29:12;;;;;;;63.00;37.42;;;;;;;7.47;75.70;102029.88;5041003;28;20053;-65
2021/03/04 00:31:38;;;;;;;70.55;40.33;;;;;;;7.40;76.15;102011.63;5035884;28;20046;-66
2021/03/04 00:34:04;;;;;;;75.13;41.60;;;;;;;7.39;76.13;102008.19;5044222;28;20128;-66
2021/03/04 00:36:30;;;;;;;68.95;39.50;;;;;;;7.34;76.34;102004.63;5041485;28;20046;-64
2021/03/04 00:38:56;;;;;;;74.10;40.03;;;;;;;7.42;75.78;101992.69;5042219;28;20202;-66
2021/03/04 00:41:22;;;;;;;75.50;40.17;;;;;;;7.35;76.01;101985.66;5049131;28;20049;-66
2021/03/04 00:43:48;;;;;;;69.93;38.78;;;;;;;7.24;76.55;101987.22;5039082;28;20053;-66
2021/03/04 00:46:14;;;;;;;76.03;40.83;;;;;;;7.13;75.88;101987.97;5043530;28;20056;-65
2021/03/04 00:48:40;;;;;;;84.55;42.28;;;;;;;6.98;76.71;101985.13;5045600;28;20068;-65
2021/03/04 00:51:06;;;;;;;72.88;39.78;;;;;;;6.84;76.86;101971.97;5043880;28;20041;-66
2021/03/04 00:53:32;;;;;;;71.93;41.38;;;;;;;6.68;77.75;101987.25;5039534;28;20056;-66
2021/03/04 00:55:58;;;;;;;80.00;40.17;;;;;;;6.64;77.49;101979.38;5039418;28;20049;-65
2021/03/04 00:58:24;;;;;;;75.32;40.78;;;;;;;6.51;77.96;101973.13;5040774;28;20083;-65
2021/03/04 01:00:51;;;;;;;74.57;39.85;;;;;;;6.51;78.17;101973.13;5045731;28;20387;-66
2021/03/04 01:03:17;;;;;;;75.22;40.33;;;;;;;6.40;78.87;101974.66;5042320;28;20057;-66
2021/03/04 01:05:43;;;;;;;79.22;41.95;;;;;;;6.38;79.21;101966.88;5041248;28;20461;-66
2021/03/04 01:08:09;;;;;;;84.80;40.88;;;;;;;6.25;79.69;101967.50;5035877;28;20399;-66
2021/03/04 01:10:41;;;;;;;79.85;40.53;;;;;;;6.21;79.83;101967.47;5038794;28;20088;-66
2021/03/04 01:13:08;;;;;;;76.07;39.90;;;;;;;6.20;79.88;101962.25;5045854;28;20060;-66
2021/03/04 01:15:35;;;;;;;72.70;40.45;;;;;;;6.20;80.18;101957.97;5042751;28;20049;-67
2021/03/04 01:18:04;;;;;;;74.60;40.58;;;;;;;6.21;79.73;101948.47;5045704;28;20119;-67
2021/03/04 01:20:30;;;;;;;77.05;38.90;;;;;;;6.16;80.70;101947.53;5041517;28;20060;-67
2021/03/04 01:22:56;;;;;;;73.38;40.95;;;;;;;6.25;80.27;101962.31;5045381;28;20060;-67
2021/03/04 01:25:22;;;;;;;77.22;40.20;;;;;;;6.39;80.11;101953.13;5042211;28;20446;-69
2021/03/04 01:27:51;;;;;;;73.00;39.40;;;;;;;6.49;79.43;101961.91;5052873;22;20049;-69
2021/03/04 01:30:20;;;;;;;72.50;39.38;;;;;;;6.40;79.22;101953.97;5022267;28;20056;-67
2021/03/04 01:32:46;;;;;;;81.20;40.03;;;;;;;6.38;79.67;101947.09;5023358;28;20099;-69
2021/03/04 01:35:13;;;;;;;73.55;39.47;;;;;;;6.45;79.20;101942.03;5020739;28;20060;-69
2021/03/04 01:37:39;;;;;;;78.30;40.17;;;;;;;6.47;79.33;101946.38;5024406;28;20049;-69
2021/03/04 01:40:08;;;;;;;74.68;39.08;;;;;;;6.45;79.20;101953.22;5027994;28;20053;-70
2021/03/04 01:42:34;;;;;;;75.97;40.33;;;;;;;6.47;78.99;101948.94;5025204;28;20053;-70
2021/03/04 01:45:00;;;;;;;73.88;38.78;;;;;;;6.37;79.15;101944.47;5029115;28;20056;-69
2021/03/04 01:47:27;;;;;;;73.38;39.20;;;;;;;6.29;79.12;101951.22;5026412;28;20049;-70
2021/03/04 01:49:53;;;;;;;77.53;40.03;;;;;;;6.15;79.18;101956.13;5023805;28;20410;-69
2021/03/04 01:52:21;;;;;;;75.68;39.03;;;;;;;6.12;79.94;101961.22;5015200;28;20109;-68
2021/03/04 01:54:47;;;;;;;69.18;36.95;;;;;;;6.23;79.68;101959.72;5029055;28;20042;-70
2021/03/04 01:57:14;;;;;;;73.47;39.03;;;;;;;6.11;79.37;101957.78;5033798;28;20064;-70
2021/03/04 01:59:40;;;;;;;81.00;40.42;;;;;;;6.07;80.50;101962.03;5039553;28;20052;-70
2021/03/04 02:02:06;;;;;;;74.10;37.80;;;;;;;6.04;79.81;101951.63;5033592;28;20042;-70
2021/03/04 02:04:32;;;;;;;76.55;39.83;;;;;;;5.97;80.37;101954.91;5035932;28;20057;-70
2021/03/04 02:07:04;;;;;;;81.40;40.67;;;;;;;5.99;80.39;101952.34;5040992;28;20057;-70
2021/03/04 02:09:33;;;;;;;82.70;40.33;;;;;;;6.07;80.65;101961.16;5029501;28;20128;-69
2021/03/04 02:12:05;;;;;;;73.05;40.58;;;;;;;6.14;80.39;101952.66;5019054;28;20135;-71
2021/03/04 02:14:33;;;;;;;78.53;39.92;;;;;;;6.21;80.17;101949.38;5025017;28;20080;-69
2021/03/04 02:17:04;;;;;;;72.90;39.83;;;;;;;6.27;79.59;101939.97;5028043;28;20056;-70
2021/03/04 02:19:48;;;;;;;73.40;38.75;;;;;;;6.27;79.58;101935.69;5028855;28;20080;-69
2021/03/04 02:22:24;;;;;;;74.30;39.37;;;;;;;6.33;78.86;101943.53;5020436;28;20049;-69
2021/03/04 02:24:59;;;;;;;73.50;38.53;;;;;;;6.29;79.38;101939.16;5030477;28;20088;-69
2021/03/04 02:27:28;;;;;;;76.43;38.75;;;;;;;6.21;79.85;101944.19;5023317;28;20046;-69
2021/03/04 02:30:00;;;;;;;73.72;38.80;;;;;;;6.08;79.90;101924.16;5033070;28;20049;-69
2021/03/04 02:32:28;;;;;;;69.43;36.67;;;;;;;6.15;79.95;101920.81;5029621;28;20038;-69
2021/03/04 02:34:59;;;;;;;79.38;40.35;;;;;;;5.97;79.65;101913.59;5030504;28;20046;-69
2021/03/04 02:37:29;;;;;;;76.05;37.67;;;;;;;5.91;79.64;101914.34;5026163;28;20096;-70
2021/03/04 02:39:57;;;;;;;70.60;37.13;;;;;;;5.77;80.52;101915.78;5029502;28;20503;-69
2021/03/04 02:42:26;;;;;;;69.90;36.20;;;;;;;5.72;80.32;101907.09;5027509;28;20042;-69
2021/03/04 02:44:57;;;;;;;70.43;36.92;;;;;;;5.58;80.87;101905.09;5029085;28;20046;-69
2021/03/04 02:47:23;;;;;;;65.70;35.75;;;;;;;5.50;81.11;101909.22;5023032;28;20052;-69
2021/03/04 02:49:50;;;;;;;65.50;36.05;;;;;;;5.54;80.58;101910.16;5030040;28;20057;-68
2021/03/04 02:52:18;;;;;;;64.65;33.42;;;;;;;5.65;80.67;101907.78;5030368;28;20061;-69
2021/03/04 02:54:44;;;;;;;64.95;33.75;;;;;;;5.54;80.33;101902.41;5026538;28;20050;-69
2021/03/04 02:57:12;;;;;;;73.95;36.65;;;;;;;5.25;81.42;101895.78;5026181;28;20044;-69
2021/03/04 02:59:40;;;;;;;75.82;35.20;;;;;;;5.20;81.88;101892.25;5030811;28;20099;-69
2021/03/04 03:02:07;;;;;;;67.50;35.70;;;;;;;5.08;82.24;101879.09;5029859;28;20045;-68
2021/03/04 03:04:35;;;;;;;74.50;36.33;;;;;;;5.04;82.67;101873.00;5033663;28;20494;-70
2021/03/04 03:07:02;;;;;;;67.60;34.58;;;;;;;5.10;82.11;101859.38;5025624;28;20063;-68
2021/03/04 03:09:29;;;;;;;71.78;34.92;;;;;;;5.18;82.24;101862.13;5023198;28;20049;-69
2021/03/04 03:11:55;;;;;;;71.95;35.55;;;;;;;5.23;81.86;101866.53;5026874;28;20048;-69
2021/03/04 03:14:22;;;;;;;73.18;36.60;;;;;;;5.27;81.86;101852.84;5025223;28;20060;-69
2021/03/04 03:16:48;;;;;;;72.30;34.92;;;;;;;5.33;81.16;101849.53;5029624;28;20079;-69
2021/03/04 03:19:15;;;;;;;73.15;35.38;;;;;;;5.34;81.43;101853.00;5020879;28;20510;-69
2021/03/04 03:21:41;;;;;;;73.68;34.92;;;;;;;5.22;81.27;101853.59;5027625;28;20503;-69
2021/03/04 03:24:08;;;;;;;82.38;37.58;;;;;;;5.06;82.52;101847.22;5024772;28;20045;-69
2021/03/04 03:26:36;;;;;;;87.28;38.67;;;;;;;5.08;82.58;101848.13;5029971;28;20423;-68
2021/03/04 03:29:02;;;;;;;87.82;40.17;;;;;;;5.03;82.74;101834.28;5023530;28;20129;-69
2021/03/04 03:31:30;;;;;;;83.53;38.63;;;;;;;4.95;82.89;101824.66;5029529;28;20045;-69
2021/03/04 03:33:58;;;;;;;99.07;39.75;;;;;;;5.02;82.70;101825.66;5032609;28;20058;-69
2021/03/04 03:36:26;;;;;;;122.82;46.30;;;;;;;4.84;83.51;101823.59;5024372;28;20049;-70
2021/03/04 03:38:53;;;;;;;120.35;45.47;;;;;;;4.91;83.44;101819.41;5026252;28;20045;-71
2021/03/04 03:41:20;;;;;;;108.53;42.30;;;;;;;4.96;83.44;101818.66;5031203;28;20049;-69
2021/03/04 03:43:48;;;;;;;88.80;38.05;;;;;;;5.07;82.95;101825.75;5028321;28;20084;-69
2021/03/04 03:46:15;;;;;;;92.75;37.80;;;;;;;5.06;83.21;101818.84;5021401;28;20037;-69
2021/03/04 03:48:42;;;;;;;91.22;39.80;;;;;;;5.06;83.46;101813.69;5032339;28;20053;-69
2021/03/04 03:51:10;;;;;;;86.30;38.20;;;;;;;5.07;83.68;101812.88;5027989;28;20049;-69
2021/03/04 03:53:37;;;;;;;88.82;38.53;;;;;;;5.00;83.24;101826.47;5030600;28;20049;-69
2021/03/04 03:56:03;;;;;;;91.28;39.60;;;;;;;4.96;83.60;101834.13;5023201;28;20091;-71
2021/03/04 03:58:31;;;;;;;96.22;40.88;;;;;;;4.94;83.84;101840.09;5021274;28;20054;-68
2021/03/04 04:00:57;;;;;;;95.97;40.95;;;;;;;4.92;83.82;101836.63;5026228;28;20426;-70
2021/03/04 04:03:24;;;;;;;129.88;45.58;;;;;;;4.79;83.97;101838.91;5027033;28;20053;-70
2021/03/04 04:05:50;;;;;;;121.82;44.80;;;;;;;4.62;85.61;101830.81;5026798;28;20045;-68
2021/03/04 04:08:18;;;;;;;113.13;43.03;;;;;;;4.69;85.49;101818.06;5032874;28;20053;-69
2021/03/04 04:10:46;;;;;;;114.22;43.67;;;;;;;4.72;85.66;101818.16;5029944;28;20057;-70
2021/03/04 04:13:13;;;;;;;110.38;46.00;;;;;;;4.83;85.20;101825.28;5026719;28;20045;-69
2021/03/04 04:15:39;;;;;;;104.85;44.67;;;;;;;4.80;84.93;101817.47;5026595;28;20487;-69
2021/03/04 04:18:06;;;;;;;104.65;42.95;;;;;;;4.72;85.37;101815.56;5027714;28;20077;-69
2021/03/04 04:20:32;;;;;;;105.93;42.17;;;;;;;4.67;85.72;101815.47;5022889;28;20557;-70
2021/03/04 04:22:59;;;;;;;105.15;43.80;;;;;;;4.71;85.26;101822.41;5027660;28;20045;-69
2021/03/04 04:25:26;;;;;;;92.60;41.22;;;;;;;4.72;85.49;101807.84;5028209;28;20046;-71
2021/03/04 04:27:54;;;;;;;104.60;44.08;;;;;;;4.69;84.99;101805.19;5029168;28;20050;-69
2021/03/04 04:30:23;;;;;;;102.03;43.50;;;;;;;4.67;85.86;101795.69;5026992;28;20053;-68
2021/03/04 04:32:49;;;;;;;106.13;44.17;;;;;;;4.66;85.38;101786.22;5024451;28;20048;-69
2021/03/04 04:35:16;;;;;;;100.32;41.65;;;;;;;4.76;85.55;101792.47;5028482;28;20150;-70
2021/03/04 04:37:43;;;;;;;108.13;44.35;;;;;;;4.72;85.30;101811.28;5025839;28;20046;-69
2021/03/04 04:40:10;;;;;;;107.72;44.40;;;;;;;4.83;85.38;101827.00;5024649;28;20046;-69
2021/03/04 04:42:37;;;;;;;108.38;46.65;;;;;;;4.96;85.08;101821.25;5021215;28;20140;-70
2021/03/04 04:45:07;;;;;;;116.95;46.47;;;;;;;5.04;84.75;101816.25;5025251;28;20484;-69
2021/03/04 04:47:33;;;;;;;120.07;44.28;;;;;;;5.03;84.77;101816.25;5022090;28;20552;-71
2021/03/04 04:49:59;;;;;;;110.28;44.80;;;;;;;5.10;84.61;101805.19;5020480;28;20049;-69
2021/03/04 04:52:25;;;;;;;120.65;46.92;;;;;;;4.98;84.08;101801.53;5028967;28;20510;-69
2021/03/04 04:54:51;;;;;;;117.18;45.35;;;;;;;5.00;84.92;101808.44;5022479;28;20065;-70
2021/03/04 04:57:16;;;;;;;126.70;47.42;;;;;;;5.04;84.23;101799.94;5026355;28;20053;-69
2021/03/04 04:59:42;;;;;;;142.85;50.33;;;;;;;5.05;84.33;101792.22;5031003;28;20049;-70
2021/03/04 05:02:09;;;;;;;126.95;48.58;;;;;;;5.04;85.05;101802.50;5024830;28;20080;-69
2021/03/04 05:04:35;;;;;;;144.13;51.20;;;;;;;5.06;85.13;101791.38;5025642;28;20049;-70
2021/03/04 05:07:01;;;;;;;139.80;51.10;;;;;;;4.86;84.99;101780.63;5025067;28;20115;-70
2021/03/04 05:09:27;;;;;;;152.13;51.28;;;;;;;4.80;85.04;101776.22;5024518;28;20672;-71
2021/03/04 05:11:53;;;;;;;160.45;54.53;;;;;;;4.77;85.51;101780.44;5023567;28;20041;-70
2021/03/04 05:14:19;;;;;;;158.00;52.15;;;;;;;4.74;85.88;101785.56;5020749;28;20045;-70
2021/03/04 05:16:45;;;;;;;153.10;49.95;;;;;;;4.81;85.91;101779.69;5023146;28;20150;-69
2021/03/04 05:19:12;;;;;;;141.60;49.55;;;;;;;4.87;86.09;101777.22;5023753;28;20080;-69
2021/03/04 05:21:38;;;;;;;145.05;51.63;;;;;;;4.74;85.50;101772.66;5022829;28;20042;-69
2021/03/04 05:24:04;;;;;;;139.90;50.55;;;;;;;4.71;86.17;101770.00;5024145;28;20055;-69
2021/03/04 05:26:30;;;;;;;142.30;50.83;;;;;;;4.68;85.96;101773.41;5027218;28;20529;-69
2021/03/04 05:28:56;;;;;;;142.40;51.60;;;;;;;4.73;86.31;101778.66;5022250;28;20057;-69
2021/03/04 05:31:22;;;;;;;140.02;51.60;;;;;;;4.65;86.20;101773.31;5026418;28;20049;-69
2021/03/04 05:33:48;;;;;;;142.35;52.42;;;;;;;4.66;86.57;101773.34;5024427;28;20061;-69
2021/03/04 05:36:15;;;;;;;135.15;50.53;;;;;;;4.75;86.51;101769.22;5026176;28;20072;-69
2021/03/04 05:38:41;;;;;;;134.43;49.97;;;;;;;4.64;86.11;101764.69;5022815;28;20099;-70
2021/03/04 05:41:08;;;;;;;146.32;52.47;;;;;;;4.46;87.00;101754.00;5021028;28;20120;-68
2021/03/04 05:43:36;;;;;;;144.25;52.13;;;;;;;4.40;87.75;101754.72;5023002;28;20084;-69
2021/03/04 05:46:02;;;;;;;151.65;55.00;;;;;;;4.33;88.10;101747.69;5023245;28;20057;-67
2021/03/04 05:48:29;;;;;;;146.00;53.47;;;;;;;4.24;88.64;101747.50;5019782;28;20057;-68
2021/03/04 05:50:59;;;;;;;150.95;55.22;;;;;;;4.33;88.25;101746.00;5021488;28;20793;-68
2021/03/04 05:53:25;;;;;;;156.98;55.40;;;;;;;4.35;88.61;101728.84;5022418;28;20058;-68
2021/03/04 05:55:52;;;;;;;140.65;52.80;;;;;;;4.44;87.84;101727.34;5024964;28;20050;-67
2021/03/04 05:58:17;;;;;;;166.23;57.90;;;;;;;4.40;87.46;101736.69;5023166;28;20046;-66
2021/03/04 06:00:44;;;;;;;158.10;55.47;;;;;;;4.49;88.06;101728.31;5023744;28;20046;-67
2021/03/04 06:03:12;;;;;;;159.50;56.88;;;;;;;4.55;87.83;101731.00;5020506;28;20048;-67
2021/03/04 06:05:38;;;;;;;159.43;54.42;;;;;;;4.58;87.44;101731.09;5021334;28;20099;-67
2021/03/04 06:08:07;;;;;;;172.05;59.00;;;;;;;4.68;86.99;101734.75;5026708;28;20049;-68
2021/03/04 06:10:34;;;;;;;182.25;61.05;;;;;;;4.70;86.66;101738.19;5026208;28;20049;-68
2021/03/04 06:13:00;;;;;;;190.98;64.07;;;;;;;4.67;86.63;101735.56;5023266;28;20487;-69
2021/03/04 06:15:28;;;;;;;169.45;59.28;;;;;;;4.80;86.53;101760.75;5022425;28;20050;-67
2021/03/04 06:17:55;;;;;;;162.90;57.33;;;;;;;4.86;86.26;101761.72;5024178;28;20049;-67
2021/03/04 06:20:21;;;;;;;163.98;58.30;;;;;;;4.91;86.23;101781.63;5020507;28;20045;-69
2021/03/04 06:22:48;;;;;;;160.35;58.00;;;;;;;4.94;86.19;101778.22;5024427;28;20056;-69
2021/03/04 06:25:15;;;;;;;161.90;55.17;;;;;;;5.03;85.82;101780.13;5025866;28;20052;-67
2021/03/04 06:27:46;;;;;;;162.88;57.22;;;;;;;4.97;86.08;101771.41;5026603;28;20060;-66
2021/03/04 06:30:14;;;;;;;166.45;56.90;;;;;;;4.95;86.73;101757.63;5024076;28;20665;-67
2021/03/04 06:32:41;;;;;;;165.50;58.42;;;;;;;5.00;86.49;101754.28;5022889;28;20049;-67
2021/03/04 06:35:10;;;;;;;166.48;57.20;;;;;;;5.00;86.40;101764.59;5021010;28;20107;-67
2021/03/04 06:37:38;;;;;;;177.45;57.15;;;;;;;4.98;86.76;101773.16;5023432;28;20050;-68
2021/03/04 06:40:06;;;;;;;172.30;56.92;;;;;;;4.97;86.99;101774.00;5020081;28;20046;-67
2021/03/04 06:42:40;;;;;;;170.77;58.28;;;;;;;5.00;86.83;101765.44;5019326;28;20058;-68
2021/03/04 06:45:21;;;;;;;170.40;56.28;;;;;;;4.91;87.57;101761.00;5025675;28;20054;-67
2021/03/04 06:47:47;;;;;;;181.75;59.78;;;;;;;4.90;87.59;101758.34;5021018;28;20096;-68
2021/03/04 06:50:22;;;;;;;192.45;58.60;;;;;;;4.96;87.77;101761.94;5028117;28;20421;-68
2021/03/04 06:52:48;;;;;;;177.25;56.97;;;;;;;5.04;87.83;101761.25;5020514;28;20050;-68
2021/03/04 06:55:15;;;;;;;175.80;55.45;;;;;;;5.09;87.26;101764.78;5024309;28;20422;-67
2021/03/04 06:57:41;;;;;;;173.82;58.10;;;;;;;5.04;87.61;101761.25;5024763;28;20072;-68
2021/03/04 07:00:18;;;;;;;160.15;57.20;;;;;;;4.99;87.26;101761.16;5027531;28;20115;-67
2021/03/04 07:02:52;;;;;;;161.05;56.13;;;;;;;4.98;87.35;101762.84;5024144;28;20521;-68
2021/03/04 07:05:18;;;;;;;167.05;52.17;;;;;;;5.00;88.81;101774.91;5024255;28;20069;-58
2021/03/04 07:07:49;;;;;;;193.35;56.97;;;;;;;5.70;94.33;101784.84;5022671;28;20052;-64
2021/03/04 07:10:17;;;;;;;158.25;51.97;;;;;;;6.11;92.91;101792.47;5023633;28;20506;-65
2021/03/04 07:12:45;;;;;;;144.90;54.97;;;;;;;6.76;88.69;101783.06;5026271;28;20048;-64
2021/03/04 07:15:13;;;;;;;129.15;49.55;;;;;;;7.31;86.67;101785.47;5029028;28;20093;-65
2021/03/04 07:17:41;;;;;;;117.45;47.55;;;;;;;7.76;81.30;101790.25;5023299;28;20073;-64
2021/03/04 07:20:12;;;;;;;97.38;44.90;;;;;;;8.12;79.24;101787.97;5028002;28;20041;-63
2021/03/04 07:22:40;;;;;;;101.05;45.85;;;;;;;8.21;75.55;101791.50;5020915;28;20491;-62
2021/03/04 07:25:07;;;;;;;95.70;42.70;;;;;;;8.08;74.63;101793.13;5026166;28;20053;-67
2021/03/04 07:27:34;;;;;;;88.13;42.22;;;;;;;7.73;73.52;101793.69;5025402;28;20064;-66
2021/03/04 07:30:00;;;;;;;87.60;40.65;;;;;;;7.25;75.31;101792.28;5024519;28;20076;-64
2021/03/04 07:32:27;;;;;;;83.68;40.58;;;;;;;6.85;76.67;101792.69;5025000;28;20120;-64
2021/03/04 07:34:54;;;;;;;82.05;37.20;;;;;;;6.52;77.72;101805.16;5022005;28;20125;-67
2021/03/04 07:37:20;;;;;;;79.45;36.78;;;;;;;6.20;79.67;101791.72;5027705;28;20053;-65
2021/03/04 07:39:47;;;;;;;79.13;37.03;;;;;;;5.97;81.07;101799.06;5024002;28;20518;-65
2021/03/04 07:42:17;;;;;;;79.90;37.67;;;;;;;5.79;81.97;101790.16;5023006;28;20050;-65
2021/03/04 07:44:43;;;;;;;79.57;37.30;;;;;;;5.68;82.34;101787.41;5023560;28;20194;-64
2021/03/04 07:47:10;;;;;;;80.88;37.10;;;;;;;5.58;82.99;101778.63;5024325;28;20049;-62
2021/03/04 07:49:39;;;;;;;77.22;35.97;;;;;;;5.52;83.17;101769.88;5021852;28;20046;-62
2021/03/04 07:52:11;;;;;;;65.38;31.33;;;;;;;5.38;83.21;101767.06;5025676;28;20077;-64
2021/03/04 07:54:38;;;;;;;70.55;33.38;;;;;;;5.30;83.75;101759.16;5027015;28;20088;-62
2021/03/04 07:57:07;;;;;;;60.10;29.83;;;;;;;5.27;84.10;101756.53;5023593;28;20049;-62
2021/03/04 07:59:33;;;;;;;70.45;33.13;;;;;;;5.20;84.08;101752.97;5024702;28;20061;-65
2021/03/04 08:02:00;;;;;;;69.97;31.15;;;;;;;5.01;85.01;101745.72;5026059;28;20068;-62
2021/03/04 08:04:28;;;;;;;63.03;29.83;;;;;;;4.87;85.71;101743.72;5023993;28;20050;-66
2021/03/04 08:06:55;;;;;;;54.35;27.38;;;;;;;4.65;87.08;101743.25;5023282;28;20553;-63
2021/03/04 08:09:26;;;;;;;59.70;28.35;;;;;;;4.53;86.95;101740.44;5025189;28;20621;-63
2021/03/04 08:12:02;;;;;;;61.45;27.65;;;;;;;4.58;87.31;101733.66;5021359;28;20053;-64
2021/03/04 08:14:28;;;;;;;52.53;25.77;;;;;;;4.55;87.61;101738.72;5022080;28;20068;-63
2021/03/04 08:16:55;;;;;;;53.17;26.88;;;;;;;4.48;87.43;101731.72;5023992;28;20053;-63
2021/03/04 08:19:26;;;;;;;56.10;25.50;;;;;;;4.50;87.78;101737.78;5022316;28;20057;-62
2021/03/04 08:22:01;;;;;;;58.03;26.38;;;;;;;4.45;88.43;101735.09;5026481;28;20077;-66
2021/03/04 08:24:27;;;;;;;60.58;26.75;;;;;;;4.51;88.45;101732.66;5021784;28;20482;-64
2021/03/04 08:26:56;;;;;;;46.28;24.13;;;;;;;4.63;88.11;101732.06;5026797;28;20056;-64
2021/03/04 08:29:22;;;;;;;47.42;21.65;;;;;;;4.46;87.70;101725.66;5020620;28;20088;-63
2021/03/04 08:31:49;;;;;;;46.67;23.00;;;;;;;4.44;87.77;101724.78;5023604;28;20081;-64
2021/03/04 08:34:15;;;;;;;49.55;22.33;;;;;;;4.38;87.63;101729.78;5025519;28;20053;-61
2021/03/04 08:36:42;;;;;;;47.95;21.58;;;;;;;4.33;88.31;101729.66;5025774;28;20108;-64
2021/03/04 08:39:09;;;;;;;45.80;21.35;;;;;;;4.33;88.47;101725.41;5024464;28;20052;-61
2021/03/04 08:41:35;;;;;;;40.22;18.70;;;;;;;4.28;88.55;101723.56;5022065;28;20068;-63
2021/03/04 08:44:12;;;;;;;46.13;20.67;;;;;;;4.23;88.80;101726.03;5020084;28;20101;-64
2021/03/04 08:46:40;;;;;;;41.33;17.85;;;;;;;4.22;88.94;101726.84;5019277;28;20561;-59
2021/03/04 08:49:06;;;;;;;36.67;17.17;;;;;;;4.24;88.61;101732.03;5022864;28;20107;-66
2021/03/04 08:51:34;;;;;;;36.97;17.17;;;;;;;4.15;88.98;101735.25;5022974;28;20053;-64
2021/03/04 08:54:00;;;;;;;35.38;15.57;;;;;;;4.15;89.39;101725.84;5024370;28;20056;-66
2021/03/04 08:56:27;;;;;;;31.27;13.70;;;;;;;4.05;89.42;101729.88;5027660;28;20057;-65
2021/03/04 08:58:53;;;;;;;35.85;16.90;;;;;;;4.08;88.64;101733.38;5022124;28;20068;-67
2021/03/04 09:01:19;;;;;;;35.20;13.48;;;;;;;4.06;89.14;101735.94;5023312;28;20043;-64
2021/03/04 09:03:45;;;;;;;32.17;14.38;;;;;;;4.04;89.44;101733.28;5025859;28;20052;-64
2021/03/04 09:06:13;;;;;;;30.17;14.15;;;;;;;4.01;89.19;101725.53;5025616;28;20052;-62
2021/03/04 09:08:40;;;;;;;25.38;12.38;;;;;;;4.03;89.11;101723.84;5022156;28;20049;-68
2021/03/04 09:11:08;;;;;;;24.55;11.48;;;;;;;4.04;88.75;101722.13;5020333;28;20049;-62
2021/03/04 09:13:36;;;;;;;28.33;12.15;;;;;;;3.97;88.71;101725.41;5026197;28;20560;-63
2021/03/04 09:16:05;;;;;;;31.13;13.60;;;;;;;3.90;89.77;101714.09;5023314;28;20057;-64
2021/03/04 09:18:33;;;;;;;31.42;14.00;;;;;;;3.91;89.38;101715.84;5022356;28;20479;-65
2021/03/04 09:20:59;;;;;;;31.48;13.57;;;;;;;3.90;89.70;101719.25;5023682;28;20058;-62
2021/03/04 09:23:26;;;;;;;28.25;12.45;;;;;;;4.00;89.36;101728.94;5024138;28;20046;-63
2021/03/04 09:25:56;;;;;;;27.83;12.25;;;;;;;4.04;88.33;101727.28;5023293;28;20063;-60
2021/03/04 09:28:23;;;;;;;31.08;13.85;;;;;;;4.07;88.87;101729.06;5022790;28;20052;-65
2021/03/04 09:30:50;;;;;;;30.35;14.35;;;;;;;4.02;88.51;101716.97;5025873;28;20045;-63
2021/03/04 09:33:18;;;;;;;31.73;13.90;;;;;;;3.95;88.38;101719.34;5019344;28;20103;-65
2021/03/04 09:35:55;;;;;;;31.55;14.05;;;;;;;3.94;88.24;101720.19;5023902;28;20057;-63
2021/03/04 09:38:21;;;;;;;27.55;12.23;;;;;;;3.85;87.90;101711.41;5020172;28;20049;-60
2021/03/04 09:40:47;;;;;;;25.65;11.40;;;;;;;3.80;88.26;101705.25;5021212;28;20045;-64
2021/03/04 09:43:14;;;;;;;20.77;9.52;;;;;;;3.67;88.56;101706.66;5025122;28;20041;-58
2021/03/04 09:45:45;;;;;;;22.25;8.98;;;;;;;3.59;88.55;101700.47;5023963;28;20068;-65
2021/03/04 09:48:12;;;;;;;17.98;7.70;;;;;;;3.69;89.16;101704.16;5023137;28;20758;-62
2021/03/04 09:50:38;;;;;;;18.27;8.52;;;;;;;3.80;88.92;101707.84;5021987;28;20045;-62
2021/03/04 09:53:06;;;;;;;17.10;7.43;;;;;;;3.92;88.02;101715.00;5022397;28;20057;-64
2021/03/04 09:55:38;;;;;;;18.83;6.90;;;;;;;4.01;88.23;101714.34;5023381;28;20431;-62
2021/03/04 09:58:11;;;;;;;14.15;6.80;;;;;;;4.08;86.64;101702.47;5025049;28;20073;-64
2021/03/04 10:00:37;;;;;;;13.68;5.90;;;;;;;3.98;85.82;101707.41;5024006;28;20045;-65
2021/03/04 10:03:08;;;;;;;15.05;6.22;;;;;;;3.95;86.64;101707.34;5022497;28;20045;-63
2021/03/04 10:05:45;;;;;;;13.32;5.85;;;;;;;3.93;86.50;101710.72;5025207;28;20475;-64
2021/03/04 10:08:12;;;;;;;14.43;7.20;;;;;;;3.94;87.35;101709.88;5021956;28;20052;-65
2021/03/04 10:10:38;;;;;;;16.70;7.93;;;;;;;3.99;87.38;101706.59;5021493;28;20080;-64
2021/03/04 10:13:04;;;;;;;13.82;6.03;;;;;;;4.07;86.78;101714.50;5022806;28;20056;-64
2021/03/04 10:15:32;;;;;;;11.68;5.45;;;;;;;4.08;86.15;101720.50;5022644;28;20086;-66
2021/03/04 10:18:00;;;;;;;10.15;4.93;;;;;;;4.03;85.35;101720.41;5021748;28;20045;-64
2021/03/04 10:20:27;;;;;;;13.07;6.35;;;;;;;3.99;86.13;101724.59;5021126;28;20145;-61
2021/03/04 10:22:54;;;;;;;13.07;5.40;;;;;;;4.06;85.24;101715.34;5019565;28;20413;-65
2021/03/04 10:25:20;;;;;;;11.57;6.05;;;;;;;4.14;85.31;101723.25;5021760;28;20062;-65
2021/03/04 10:27:47;;;;;;;14.20;6.35;;;;;;;4.23;85.11;101710.56;5025696;28;20115;-62
2021/03/04 10:30:15;;;;;;;16.85;8.27;;;;;;;4.28;84.95;101719.25;5022022;28;20045;-64
2021/03/04 10:32:41;;;;;;;14.45;7.78;;;;;;;4.39;85.03;101721.22;5022620;28;20495;-63
2021/03/04 10:35:09;;;;;;;16.65;8.18;;;;;;;4.46;84.36;101723.97;5023978;28;20041;-60
2021/03/04 10:37:35;;;;;;;21.30;11.15;;;;;;;4.50;85.19;101717.16;5026246;28;20045;-61
2021/03/04 10:40:03;;;;;;;26.00;11.68;;;;;;;4.54;85.21;101715.53;5024510;28;20057;-62
2021/03/04 10:42:29;;;;;;;24.67;11.10;;;;;;;4.43;84.99;101717.88;5026328;28;20096;-65
2021/03/04 10:44:56;;;;;;;26.55;13.05;;;;;;;4.47;85.68;101727.41;5025816;28;20133;-62
2021/03/04 10:47:22;;;;;;;26.33;12.48;;;;;;;4.44;84.68;101729.94;5026168;28;20054;-64
2021/03/04 10:49:48;;;;;;;27.52;13.00;;;;;;;4.41;84.19;101724.69;5029786;28;20084;-64
2021/03/04 10:52:14;;;;;;;27.00;12.77;;;;;;;4.33;84.85;101716.78;5024598;28;20406;-61
2021/03/04 10:54:40;;;;;;;23.92;11.40;;;;;;;4.36;85.04;101720.31;5028252;28;20049;-58
2021/03/04 10:57:07;;;;;;;23.70;10.82;;;;;;;4.40;84.79;101717.81;5029133;28;20080;-66
2021/03/04 10:59:33;;;;;;;25.33;11.52;;;;;;;4.41;85.03;101724.69;5027560;28;20053;-63
2021/03/04 11:01:59;;;;;;;23.38;11.00;;;;;;;4.40;85.05;101728.09;5022668;28;20383;-62
2021/03/04 11:04:25;;;;;;;29.75;11.73;;;;;;;4.27;86.05;101724.38;5024709;28;20049;-66
2021/03/04 11:06:51;;;;;;;24.80;10.05;;;;;;;4.29;86.42;101728.72;5027420;28;20049;-62
2021/03/04 11:09:17;;;;;;;15.55;6.70;;;;;;;4.27;85.48;101725.25;5028860;28;20462;-64
2021/03/04 11:11:43;;;;;;;13.98;6.38;;;;;;;4.19;85.66;101719.06;5025776;28;20569;-61
2021/03/04 11:14:09;;;;;;;17.10;7.13;;;;;;;4.15;85.77;101722.38;5023569;28;20494;-61
2021/03/04 11:16:35;;;;;;;15.57;6.53;;;;;;;4.09;85.92;101725.72;5027466;28;20053;-57